sensor_id;sensor_type;location;lat;lon;timestamp;pressure;altitude;pressure_sealevel;temperature;humidity
30714;BME280;17465;47.934;33.430;2023-02-28T00:00:40;57402.45;;;-140.43;100.00
30714;BME280;17465;47.934;33.430;2023-02-28T00:03:11;57388.68;;;-140.43;100.00
30714;BME280;17465;47.934;33.430;2023-02-28T00:05:41;57384.44;;;-140.43;100.00
30714;BME280;17465;47.934;33.430;2023-02-28T00:08:12;57392.91;;;-140.43;100.00
30714;BME280;17465;47.934;33.430;2023-02-28T00:10:43;57392.91;;;-140.43;100.00
30714;BME280;17465;47.934;33.430;2023-02-28T00:13:14;57395.03;;;-140.43;100.00
30714;BME280;17465;47.934;33.430;2023-02-28T00:15:45;57399.27;;;-140.43;100.00
30714;BME280;17465;47.934;33.430;2023-02-28T00:18:16;57399.27;;;-140.43;100.00
30714;BME280;17465;47.934;33.430;2023-02-28T00:20:47;57403.51;;;-140.43;100.00
30714;BME280;17465;47.934;33.430;2023-02-28T00:23:19;57391.86;;;-140.43;100.00
30714;BME280;17465;47.934;33.430;2023-02-28T00:25:51;57396.09;;;-140.43;100.00
30714;BME280;17465;47.934;33.430;2023-02-28T00:28:22;57368.55;;;-140.43;100.00
30714;BME280;17465;47.934;33.430;2023-02-28T00:30:53;57368.55;;;-140.43;100.00
30714;BME280;17465;47.934;33.430;2023-02-28T00:33:24;57395.03;;;-140.43;100.00
30714;BME280;17465;47.934;33.430;2023-02-28T00:36:07;57382.32;;;-140.43;100.00
30714;BME280;17465;47.934;33.430;2023-02-28T00:38:28;57385.50;;;-140.43;100.00
30714;BME280;17465;47.934;33.430;2023-02-28T00:40:58;57406.68;;;-140.43;100.00
30714;BME280;17465;47.934;33.430;2023-02-28T00:43:29;57406.68;;;-140.43;100.00
30714;BME280;17465;47.934;33.430;2023-02-28T00:45:59;57404.57;;;-140.43;100.00
30714;BME280;17465;47.934;33.430;2023-02-28T00:48:30;57423.63;;;-140.43;100.00
30714;BME280;17465;47.934;33.430;2023-02-28T00:51:01;57423.63;;;-140.43;100.00
30714;BME280;17465;47.934;33.430;2023-02-28T00:53:32;57419.39;;;-140.43;100.00
30714;BME280;17465;47.934;33.430;2023-02-28T00:56:04;57410.92;;;-140.43;100.00
30714;BME280;17465;47.934;33.430;2023-02-28T00:58:35;57410.92;;;-140.43;100.00
30714;BME280;17465;47.934;33.430;2023-02-28T01:01:06;57411.98;;;-140.43;100.00
30714;BME280;17465;47.934;33.430;2023-02-28T01:03:37;57411.98;;;-140.43;100.00
30714;BME280;17465;47.934;33.430;2023-02-28T01:06:08;57410.92;;;-140.43;100.00
30714;BME280;17465;47.934;33.430;2023-02-28T01:08:39;57401.39;;;-140.43;100.00
30714;BME280;17465;47.934;33.430;2023-02-28T01:11:12;57405.62;;;-140.43;100.00
30714;BME280;17465;47.934;33.430;2023-02-28T01:13:44;57405.62;;;-140.43;100.00
30714;BME280;17465;47.934;33.430;2023-02-28T01:16:14;57411.98;;;-140.43;100.00
30714;BME280;17465;47.934;33.430;2023-02-28T01:18:46;57420.45;;;-140.43;100.00
30714;BME280;17465;47.934;33.430;2023-02-28T01:21:18;57421.51;;;-140.43;100.00
30714;BME280;17465;47.934;33.430;2023-02-28T01:23:50;57391.86;;;-140.43;100.00
30714;BME280;17465;47.934;33.430;2023-02-28T01:26:22;57405.62;;;-140.43;100.00
30714;BME280;17465;47.934;33.430;2023-02-28T01:28:53;57405.62;;;-140.43;100.00
30714;BME280;17465;47.934;33.430;2023-02-28T01:31:24;57410.92;;;-140.43;100.00
30714;BME280;17465;47.934;33.430;2023-02-28T01:33:54;57414.10;;;-140.43;100.00
30714;BME280;17465;47.934;33.430;2023-02-28T01:36:26;57404.57;;;-140.43;100.00
30714;BME280;17465;47.934;33.430;2023-02-28T01:38:56;57410.92;;;-140.43;100.00
30714;BME280;17465;47.934;33.430;2023-02-28T01:41:30;57419.39;;;-140.43;100.00
30714;BME280;17465;47.934;33.430;2023-02-28T01:46:53;57402.45;;;-140.43;100.00
30714;BME280;17465;47.934;33.430;2023-02-28T01:49:23;57409.86;;;-140.43;100.00
30714;BME280;17465;47.934;33.430;2023-02-28T01:51:56;57409.86;;;-140.43;100.00
30714;BME280;17465;47.934;33.430;2023-02-28T01:54:33;57422.57;;;-140.43;100.00
30714;BME280;17465;47.934;33.430;2023-02-28T01:57:08;57422.57;;;-140.43;100.00
30714;BME280;17465;47.934;33.430;2023-02-28T01:59:42;57380.21;;;-140.43;100.00
30714;BME280;17465;47.934;33.430;2023-02-28T02:02:14;57414.10;;;-140.43;100.00
30714;BME280;17465;47.934;33.430;2023-02-28T02:05:11;57436.34;;;-140.43;100.00
30714;BME280;17465;47.934;33.430;2023-02-28T02:07:19;57393.98;;;-140.43;100.00
30714;BME280;17465;47.934;33.430;2023-02-28T02:10:00;57411.98;;;-140.43;100.00
30714;BME280;17465;47.934;33.430;2023-02-28T02:15:32;57390.80;;;-140.43;100.00
30714;BME280;17465;47.934;33.430;2023-02-28T02:18:13;57384.44;;;-140.43;100.00
30714;BME280;17465;47.934;33.430;2023-02-28T02:26:27;57419.39;;;-140.43;100.00
30714;BME280;17465;47.934;33.430;2023-02-28T02:29:04;57396.09;;;-140.43;100.00
30714;BME280;17465;47.934;33.430;2023-02-28T02:34:40;57397.15;;;-140.43;100.00
30714;BME280;17465;47.934;33.430;2023-02-28T02:40:00;57382.32;;;-140.43;100.00
30714;BME280;17465;47.934;33.430;2023-02-28T02:42:49;57385.50;;;-140.43;100.00
30714;BME280;17465;47.934;33.430;2023-02-28T02:45:41;57435.28;;;-140.43;100.00
30714;BME280;17465;47.934;33.430;2023-02-28T02:48:09;57432.10;;;-140.43;100.00
30714;BME280;17465;47.934;33.430;2023-02-28T02:50:48;57406.68;;;-140.43;100.00
30714;BME280;17465;47.934;33.430;2023-02-28T02:53:15;57406.68;;;-140.43;100.00
30714;BME280;17465;47.934;33.430;2023-02-28T02:55:50;57416.21;;;-140.43;100.00
30714;BME280;17465;47.934;33.430;2023-02-28T02:58:29;57409.86;;;-140.43;100.00
30714;BME280;17465;47.934;33.430;2023-02-28T03:00:57;57413.04;;;-140.43;100.00
30714;BME280;17465;47.934;33.430;2023-02-28T03:03:30;57413.04;;;-140.43;100.00
30714;BME280;17465;47.934;33.430;2023-02-28T03:06:02;57404.57;;;-140.43;100.00
30714;BME280;17465;47.934;33.430;2023-02-28T03:08:37;57404.57;;;-140.43;100.00
30714;BME280;17465;47.934;33.430;2023-02-28T03:11:12;57411.98;;;-140.43;100.00
30714;BME280;17465;47.934;33.430;2023-02-28T03:17:05;57401.39;;;-140.43;100.00
30714;BME280;17465;47.934;33.430;2023-02-28T03:22:41;57414.10;;;-140.43;100.00
30714;BME280;17465;47.934;33.430;2023-02-28T03:25:29;57401.39;;;-140.43;100.00
30714;BME280;17465;47.934;33.430;2023-02-28T03:31:15;57418.33;;;-140.43;100.00
30714;BME280;17465;47.934;33.430;2023-02-28T03:34:22;57413.04;;;-140.43;100.00
30714;BME280;17465;47.934;33.430;2023-02-28T03:36:55;57434.22;;;-140.43;100.00
30714;BME280;17465;47.934;33.430;2023-02-28T03:45:08;57416.21;;;-140.43;100.00
30714;BME280;17465;47.934;33.430;2023-02-28T03:50:44;57401.39;;;-140.43;100.00
30714;BME280;17465;47.934;33.430;2023-02-28T03:55:58;57416.21;;;-140.43;100.00
30714;BME280;17465;47.934;33.430;2023-02-28T03:58:55;57404.57;;;-140.43;100.00
30714;BME280;17465;47.934;33.430;2023-02-28T04:01:33;57429.98;;;-140.43;100.00
30714;BME280;17465;47.934;33.430;2023-02-28T04:04:01;57421.51;;;-140.43;100.00
30714;BME280;17465;47.934;33.430;2023-02-28T04:06:33;57445.87;;;-140.43;100.00
30714;BME280;17465;47.934;33.430;2023-02-28T04:09:06;57402.45;;;-140.43;100.00
30714;BME280;17465;47.934;33.430;2023-02-28T04:11:38;57372.79;;;-140.43;100.00
30714;BME280;17465;47.934;33.430;2023-02-28T04:14:11;57411.98;;;-140.43;100.00
30714;BME280;17465;47.934;33.430;2023-02-28T04:16:42;57414.10;;;-140.43;100.00
30714;BME280;17465;47.934;33.430;2023-02-28T04:19:13;57414.10;;;-140.43;100.00
30714;BME280;17465;47.934;33.430;2023-02-28T04:21:47;57415.16;;;-140.43;100.00
30714;BME280;17465;47.934;33.430;2023-02-28T04:27:09;57429.98;;;-140.43;100.00
30714;BME280;17465;47.934;33.430;2023-02-28T04:29:40;57428.92;;;-140.43;100.00
30714;BME280;17465;47.934;33.430;2023-02-28T04:32:14;57423.63;;;-140.43;100.00
30714;BME280;17465;47.934;33.430;2023-02-28T04:34:45;57423.63;;;-140.43;100.00
30714;BME280;17465;47.934;33.430;2023-02-28T04:37:16;57420.45;;;-140.43;100.00
30714;BME280;17465;47.934;33.430;2023-02-28T04:39:49;57426.80;;;-140.43;100.00
30714;BME280;17465;47.934;33.430;2023-02-28T04:42:22;57424.69;;;-140.43;100.00
30714;BME280;17465;47.934;33.430;2023-02-28T04:44:56;57395.03;;;-140.43;100.00
30714;BME280;17465;47.934;33.430;2023-02-28T04:47:26;57375.97;;;-140.43;100.00
30714;BME280;17465;47.934;33.430;2023-02-28T04:49:58;57383.38;;;-140.43;100.00
30714;BME280;17465;47.934;33.430;2023-02-28T04:52:29;57395.03;;;-140.43;100.00
30714;BME280;17465;47.934;33.430;2023-02-28T04:55:00;57420.45;;;-140.43;100.00
30714;BME280;17465;47.934;33.430;2023-02-28T04:57:31;57425.75;;;-140.43;100.00
30714;BME280;17465;47.934;33.430;2023-02-28T05:00:03;57425.75;;;-140.43;100.00
30714;BME280;17465;47.934;33.430;2023-02-28T05:02:37;57407.74;;;-140.43;100.00
30714;BME280;17465;47.934;33.430;2023-02-28T05:05:08;57395.03;;;-140.43;100.00
30714;BME280;17465;47.934;33.430;2023-02-28T05:07:43;57395.03;;;-140.43;100.00
30714;BME280;17465;47.934;33.430;2023-02-28T05:10:15;57414.10;;;-140.43;100.00
30714;BME280;17465;47.934;33.430;2023-02-28T05:12:47;57399.27;;;-140.43;100.00
30714;BME280;17465;47.934;33.430;2023-02-28T05:15:18;57415.16;;;-140.43;100.00
30714;BME280;17465;47.934;33.430;2023-02-28T05:17:51;57422.57;;;-140.43;100.00
30714;BME280;17465;47.934;33.430;2023-02-28T05:20:21;57422.57;;;-140.43;100.00
30714;BME280;17465;47.934;33.430;2023-02-28T05:22:52;57411.98;;;-140.43;100.00
30714;BME280;17465;47.934;33.430;2023-02-28T05:25:22;57403.51;;;-140.43;100.00
30714;BME280;17465;47.934;33.430;2023-02-28T05:27:56;57403.51;;;-140.43;100.00
30714;BME280;17465;47.934;33.430;2023-02-28T05:30:27;57424.69;;;-140.43;100.00
30714;BME280;17465;47.934;33.430;2023-02-28T05:32:58;57380.21;;;-140.43;99.70
30714;BME280;17465;47.934;33.430;2023-02-28T05:35:28;57406.68;;;-140.43;98.96
30714;BME280;17465;47.934;33.430;2023-02-28T05:38:00;57395.03;;;-140.43;99.54
30714;BME280;17465;47.934;33.430;2023-02-28T05:40:30;57395.03;;;-140.43;99.54
30714;BME280;17465;47.934;33.430;2023-02-28T05:43:02;57418.33;;;-140.43;98.01
30714;BME280;17465;47.934;33.430;2023-02-28T05:48:30;57414.10;;;-140.43;99.50
30714;BME280;17465;47.934;33.430;2023-02-28T05:51:01;57381.27;;;-140.43;100.00
30714;BME280;17465;47.934;33.430;2023-02-28T05:53:33;57405.62;;;-140.43;98.42
30714;BME280;17465;47.934;33.430;2023-02-28T05:56:04;57406.68;;;-140.43;98.35
30714;BME280;17465;47.934;33.430;2023-02-28T05:58:48;57367.50;;;-140.43;98.23
30714;BME280;17465;47.934;33.430;2023-02-28T06:01:39;57379.15;;;-140.43;96.98
30714;BME280;17465;47.934;33.430;2023-02-28T06:04:13;57389.74;;;-140.43;98.03
30714;BME280;17465;47.934;33.430;2023-02-28T06:06:47;57421.51;;;-140.43;98.28
30714;BME280;17465;47.934;33.430;2023-02-28T06:09:18;57387.62;;;-140.43;97.14
30714;BME280;17465;47.934;33.430;2023-02-28T06:11:49;57388.68;;;-140.43;96.57
30714;BME280;17465;47.934;33.430;2023-02-28T06:14:20;57406.68;;;-140.43;96.74
30714;BME280;17465;47.934;33.430;2023-02-28T06:16:51;57418.33;;;-140.43;98.50
30714;BME280;17465;47.934;33.430;2023-02-28T06:19:22;57421.51;;;-140.43;96.42
30714;BME280;17465;47.934;33.430;2023-02-28T06:21:55;57401.39;;;-140.43;96.25
30714;BME280;17465;47.934;33.430;2023-02-28T06:24:27;57382.32;;;-140.43;98.16
30714;BME280;17465;47.934;33.430;2023-02-28T06:26:57;57388.68;;;-140.43;98.43
30714;BME280;17465;47.934;33.430;2023-02-28T06:29:28;57409.86;;;-140.43;97.70
30714;BME280;17465;47.934;33.430;2023-02-28T06:31:59;57418.33;;;-140.43;98.42
30714;BME280;17465;47.934;33.430;2023-02-28T06:34:29;57400.33;;;-140.43;97.39
30714;BME280;17465;47.934;33.430;2023-02-28T06:37:00;57414.10;;;-140.43;98.30
30714;BME280;17465;47.934;33.430;2023-02-28T06:39:31;57426.80;;;-140.43;98.71
30714;BME280;17465;47.934;33.430;2023-02-28T06:42:03;57422.57;;;-140.43;98.22
30714;BME280;17465;47.934;33.430;2023-02-28T06:44:33;57429.98;;;-140.43;97.88
30714;BME280;17465;47.934;33.430;2023-02-28T06:47:10;57419.39;;;-140.43;97.47
30714;BME280;17465;47.934;33.430;2023-02-28T06:49:48;57419.39;;;-140.43;97.47
30714;BME280;17465;47.934;33.430;2023-02-28T06:52:25;57406.68;;;-140.43;95.92
30714;BME280;17465;47.934;33.430;2023-02-28T06:54:55;57418.33;;;-140.43;95.22
30714;BME280;17465;47.934;33.430;2023-02-28T06:57:33;57414.10;;;-140.43;94.81
30714;BME280;17465;47.934;33.430;2023-02-28T07:00:07;57415.16;;;-140.43;92.46
30714;BME280;17465;47.934;33.430;2023-02-28T07:02:39;57408.80;;;-140.43;94.15
30714;BME280;17465;47.934;33.430;2023-02-28T07:05:13;57403.51;;;-140.43;92.76
30714;BME280;17465;47.934;33.430;2023-02-28T07:07:43;57403.51;;;-140.43;92.76
30714;BME280;17465;47.934;33.430;2023-02-28T07:10:14;57396.09;;;-140.43;92.45
30714;BME280;17465;47.934;33.430;2023-02-28T07:12:46;57392.91;;;-140.43;92.49
30714;BME280;17465;47.934;33.430;2023-02-28T07:15:17;57383.38;;;-140.43;91.73
30714;BME280;17465;47.934;33.430;2023-02-28T07:17:47;57383.38;;;-140.43;91.73
30714;BME280;17465;47.934;33.430;2023-02-28T07:20:18;57395.03;;;-140.43;91.04
30714;BME280;17465;47.934;33.430;2023-02-28T07:22:50;57420.45;;;-140.43;90.92
30714;BME280;17465;47.934;33.430;2023-02-28T07:28:19;57417.27;;;-140.43;91.34
30714;BME280;17465;47.934;33.430;2023-02-28T07:30:49;57390.80;;;-140.43;89.80
30714;BME280;17465;47.934;33.430;2023-02-28T07:33:21;57357.96;;;-140.43;89.86
30714;BME280;17465;47.934;33.430;2023-02-28T07:35:59;57389.74;;;-140.43;89.49
30714;BME280;17465;47.934;33.430;2023-02-28T07:38:26;57424.69;;;-140.43;88.46
30714;BME280;17465;47.934;33.430;2023-02-28T07:40:57;57368.55;;;-140.43;89.13
30714;BME280;17465;47.934;33.430;2023-02-28T07:43:28;57397.15;;;-140.43;89.89
30714;BME280;17465;47.934;33.430;2023-02-28T07:46:06;57397.15;;;-140.43;89.89
30714;BME280;17465;47.934;33.430;2023-02-28T07:48:37;57388.68;;;-140.43;88.87
30714;BME280;17465;47.934;33.430;2023-02-28T07:51:09;57370.68;;;-140.43;89.20
30714;BME280;17465;47.934;33.430;2023-02-28T07:53:40;57377.03;;;-140.43;87.57
30714;BME280;17465;47.934;33.430;2023-02-28T07:56:10;57392.91;;;-140.43;87.81
30714;BME280;17465;47.934;33.430;2023-02-28T07:58:41;57387.62;;;-140.43;88.78
30714;BME280;17465;47.934;33.430;2023-02-28T08:01:17;57388.68;;;-140.43;88.69
30714;BME280;17465;47.934;33.430;2023-02-28T08:03:48;57382.32;;;-140.43;89.38
30714;BME280;17465;47.934;33.430;2023-02-28T08:06:23;57382.32;;;-140.43;89.38
30714;BME280;17465;47.934;33.430;2023-02-28T08:08:57;57389.74;;;-140.43;87.89
30714;BME280;17465;47.934;33.430;2023-02-28T08:11:29;57395.03;;;-140.43;87.44
30714;BME280;17465;47.934;33.430;2023-02-28T08:14:01;57373.85;;;-140.43;86.87
30714;BME280;17465;47.934;33.430;2023-02-28T08:16:32;57380.21;;;-140.43;85.05
30714;BME280;17465;47.934;33.430;2023-02-28T08:19:04;57380.21;;;-140.43;85.05
30714;BME280;17465;47.934;33.430;2023-02-28T08:21:38;57391.86;;;-140.43;83.25
30714;BME280;17465;47.934;33.430;2023-02-28T08:24:09;57379.15;;;-140.43;83.96
30714;BME280;17465;47.934;33.430;2023-02-28T08:26:42;57391.86;;;-140.43;83.57
30714;BME280;17465;47.934;33.430;2023-02-28T08:29:13;57385.50;;;-140.43;82.60
30714;BME280;17465;47.934;33.430;2023-02-28T08:31:44;57366.44;;;-140.43;83.71
30714;BME280;17465;47.934;33.430;2023-02-28T08:34:15;57419.39;;;-140.43;82.65
30714;BME280;17465;47.934;33.430;2023-02-28T08:36:49;57404.57;;;-140.43;81.25
30714;BME280;17465;47.934;33.430;2023-02-28T08:39:20;57404.57;;;-140.43;81.25
30714;BME280;17465;47.934;33.430;2023-02-28T08:41:51;57355.85;;;-140.43;81.57
30714;BME280;17465;47.934;33.430;2023-02-28T08:44:26;57384.44;;;-140.43;80.66
30714;BME280;17465;47.934;33.430;2023-02-28T08:47:01;57384.44;;;-140.43;81.55
30714;BME280;17465;47.934;33.430;2023-02-28T08:49:34;57388.68;;;-140.43;79.87
30714;BME280;17465;47.934;33.430;2023-02-28T08:52:05;57380.21;;;-140.43;81.28
30714;BME280;17465;47.934;33.430;2023-02-28T08:54:40;57396.09;;;-140.43;83.24
30714;BME280;17465;47.934;33.430;2023-02-28T08:57:12;57382.32;;;-140.43;83.44
30714;BME280;17465;47.934;33.430;2023-02-28T08:59:54;57382.32;;;-140.43;83.44
30714;BME280;17465;47.934;33.430;2023-02-28T09:02:31;57386.56;;;-140.43;81.91
30714;BME280;17465;47.934;33.430;2023-02-28T09:05:08;57386.56;;;-140.43;81.91
30714;BME280;17465;47.934;33.430;2023-02-28T09:07:39;57378.09;;;-140.43;83.71
30714;BME280;17465;47.934;33.430;2023-02-28T09:10:10;57382.32;;;-140.43;83.41
30714;BME280;17465;47.934;33.430;2023-02-28T09:12:41;57404.57;;;-140.43;82.50
30714;BME280;17465;47.934;33.430;2023-02-28T09:15:13;57406.68;;;-140.43;82.02
30714;BME280;17465;47.934;33.430;2023-02-28T09:17:59;57381.27;;;-140.43;81.93
30714;BME280;17465;47.934;33.430;2023-02-28T09:20:33;57407.74;;;-140.43;81.85
30714;BME280;17465;47.934;33.430;2023-02-28T09:23:04;57375.97;;;-140.43;82.73
30714;BME280;17465;47.934;33.430;2023-02-28T09:25:35;57411.98;;;-140.43;82.66
30714;BME280;17465;47.934;33.430;2023-02-28T09:28:06;57417.27;;;-140.43;83.06
30714;BME280;17465;47.934;33.430;2023-02-28T09:30:36;57379.15;;;-140.43;82.65
30714;BME280;17465;47.934;33.430;2023-02-28T09:33:10;57390.80;;;-140.43;83.91
30714;BME280;17465;47.934;33.430;2023-02-28T09:35:51;57388.68;;;-140.43;81.13
30714;BME280;17465;47.934;33.430;2023-02-28T09:38:22;57395.03;;;-140.43;83.20
30714;BME280;17465;47.934;33.430;2023-02-28T09:43:59;57420.45;;;-140.43;83.66
30714;BME280;17465;47.934;33.430;2023-02-28T09:46:47;57397.15;;;-140.43;83.06
30714;BME280;17465;47.934;33.430;2023-02-28T09:49:22;57392.91;;;-140.43;81.81
30714;BME280;17465;47.934;33.430;2023-02-28T09:52:10;57416.21;;;-140.43;80.51
30714;BME280;17465;47.934;33.430;2023-02-28T09:54:38;57368.55;;;-140.43;81.15
30714;BME280;17465;47.934;33.430;2023-02-28T10:00:16;57399.27;;;-140.43;80.95
30714;BME280;17465;47.934;33.430;2023-02-28T10:05:28;57414.10;;;-140.43;80.96
30714;BME280;17465;47.934;33.430;2023-02-28T10:11:12;57410.92;;;-140.43;80.39
30714;BME280;17465;47.934;33.430;2023-02-28T10:16:24;57379.15;;;-140.43;81.40
30714;BME280;17465;47.934;33.430;2023-02-28T10:21:52;57419.39;;;-140.43;81.08
30714;BME280;17465;47.934;33.430;2023-02-28T10:27:12;57434.22;;;-140.43;81.50
30714;BME280;17465;47.934;33.430;2023-02-28T10:29:34;57381.27;;;-140.43;81.03
30714;BME280;17465;47.934;33.430;2023-02-28T10:32:05;57417.27;;;-140.43;81.61
30714;BME280;17465;47.934;33.430;2023-02-28T10:34:37;57400.33;;;-140.43;80.79
30714;BME280;17465;47.934;33.430;2023-02-28T10:37:08;57400.33;;;-140.43;80.79
30714;BME280;17465;47.934;33.430;2023-02-28T10:39:44;57417.27;;;-140.43;79.83
30714;BME280;17465;47.934;33.430;2023-02-28T10:42:24;57385.50;;;-140.43;78.72
30714;BME280;17465;47.934;33.430;2023-02-28T10:45:15;57379.15;;;-140.43;80.86
30714;BME280;17465;47.934;33.430;2023-02-28T10:47:55;57397.15;;;-140.43;80.84
30714;BME280;17465;47.934;33.430;2023-02-28T10:50:52;57397.15;;;-140.43;80.84
30714;BME280;17465;47.934;33.430;2023-02-28T10:53:34;57413.04;;;-140.43;80.02
30714;BME280;17465;47.934;33.430;2023-02-28T10:56:15;57400.33;;;-140.43;80.79
30714;BME280;17465;47.934;33.430;2023-02-28T11:07:22;57403.51;;;-140.43;80.32
30714;BME280;17465;47.934;33.430;2023-02-28T11:10:00;57405.62;;;-140.43;79.32
30714;BME280;17465;47.934;33.430;2023-02-28T11:12:38;57378.09;;;-140.43;78.46
30714;BME280;17465;47.934;33.430;2023-02-28T11:15:28;57395.03;;;-140.43;77.05
30714;BME280;17465;47.934;33.430;2023-02-28T11:18:02;57395.03;;;-140.43;77.05
30714;BME280;17465;47.934;33.430;2023-02-28T11:20:35;57392.91;;;-140.43;76.72
30714;BME280;17465;47.934;33.430;2023-02-28T11:23:10;57392.91;;;-140.43;76.72
30714;BME280;17465;47.934;33.430;2023-02-28T11:25:46;57386.56;;;-140.43;76.77
30714;BME280;17465;47.934;33.430;2023-02-28T11:28:30;57406.68;;;-140.43;75.78
30714;BME280;17465;47.934;33.430;2023-02-28T11:33:53;57407.74;;;-140.43;78.64
30714;BME280;17465;47.934;33.430;2023-02-28T11:36:30;57402.45;;;-140.43;78.67
30714;BME280;17465;47.934;33.430;2023-02-28T11:39:07;57390.80;;;-140.43;75.23
30714;BME280;17465;47.934;33.430;2023-02-28T11:41:47;57405.62;;;-140.43;76.43
30714;BME280;17465;47.934;33.430;2023-02-28T11:47:18;57415.16;;;-140.43;77.70
30714;BME280;17465;47.934;33.430;2023-02-28T11:55:27;57424.69;;;-140.43;81.15
30714;BME280;17465;47.934;33.430;2023-02-28T12:06:22;57399.27;;;-140.43;80.17
30714;BME280;17465;47.934;33.430;2023-02-28T12:08:57;57415.16;;;-140.43;81.98
30714;BME280;17465;47.934;33.430;2023-02-28T12:14:31;57436.34;;;-140.43;80.47
30714;BME280;17465;47.934;33.430;2023-02-28T12:28:38;57413.04;;;-140.43;81.61
30714;BME280;17465;47.934;33.430;2023-02-28T12:33:43;57410.92;;;-140.43;80.83
30714;BME280;17465;47.934;33.430;2023-02-28T12:36:16;57445.87;;;-140.43;81.66
30714;BME280;17465;47.934;33.430;2023-02-28T12:38:56;57405.62;;;-140.43;79.76
30714;BME280;17465;47.934;33.430;2023-02-28T12:41:49;57434.22;;;-140.43;78.07
30714;BME280;17465;47.934;33.430;2023-02-28T12:44:34;57390.80;;;-140.43;75.92
30714;BME280;17465;47.934;33.430;2023-02-28T12:47:09;57395.03;;;-140.43;78.92
30714;BME280;17465;47.934;33.430;2023-02-28T12:52:40;57403.51;;;-140.43;79.00
30714;BME280;17465;47.934;33.430;2023-02-28T13:01:33;57422.57;;;-140.43;79.52
30714;BME280;17465;47.934;33.430;2023-02-28T13:09:35;57429.98;;;-140.43;78.73
30714;BME280;17465;47.934;33.430;2023-02-28T13:12:15;57429.98;;;-140.43;78.73
30714;BME280;17465;47.934;33.430;2023-02-28T13:14:47;57391.86;;;-140.43;79.60
30714;BME280;17465;47.934;33.430;2023-02-28T13:17:24;57437.39;;;-140.43;80.09
30714;BME280;17465;47.934;33.430;2023-02-28T13:20:00;57417.27;;;-140.43;80.96
30714;BME280;17465;47.934;33.430;2023-02-28T13:22:39;57417.27;;;-140.43;80.96
30714;BME280;17465;47.934;33.430;2023-02-28T13:28:12;57407.74;;;-140.43;80.54
30714;BME280;17465;47.934;33.430;2023-02-28T13:33:31;57433.16;;;-140.43;81.85
30714;BME280;17465;47.934;33.430;2023-02-28T13:36:12;57433.16;;;-140.43;81.85
30714;BME280;17465;47.934;33.430;2023-02-28T13:38:54;57424.69;;;-140.43;80.38
30714;BME280;17465;47.934;33.430;2023-02-28T13:41:45;57392.91;;;-140.43;81.47
30714;BME280;17465;47.934;33.430;2023-02-28T13:44:22;57447.99;;;-140.43;82.25
30714;BME280;17465;47.934;33.430;2023-02-28T13:49:31;57408.80;;;-140.43;83.28
30714;BME280;17465;47.934;33.430;2023-02-28T14:08:47;57429.98;;;-140.43;81.92
30714;BME280;17465;47.934;33.430;2023-02-28T14:11:28;57413.04;;;-140.43;81.56
30714;BME280;17465;47.934;33.430;2023-02-28T14:16:59;57424.69;;;-140.43;82.73
30714;BME280;17465;47.934;33.430;2023-02-28T14:19:32;57424.69;;;-140.43;82.73
30714;BME280;17465;47.934;33.430;2023-02-28T14:22:20;57440.57;;;-140.43;82.46
30714;BME280;17465;47.934;33.430;2023-02-28T14:24:51;57427.87;;;-140.43;83.04
30714;BME280;17465;47.934;33.430;2023-02-28T14:27:40;57427.87;;;-140.43;83.04
30714;BME280;17465;47.934;33.430;2023-02-28T14:33:22;57418.33;;;-140.43;81.75
30714;BME280;17465;47.934;33.430;2023-02-28T14:36:18;57432.10;;;-140.43;81.79
30714;BME280;17465;47.934;33.430;2023-02-28T14:41:29;57437.39;;;-140.43;81.23
30714;BME280;17465;47.934;33.430;2023-02-28T14:44:00;57437.39;;;-140.43;81.23
30714;BME280;17465;47.934;33.430;2023-02-28T14:46:40;57421.51;;;-140.43;82.36
30714;BME280;17465;47.934;33.430;2023-02-28T14:52:02;57444.81;;;-140.43;79.77
30714;BME280;17465;47.934;33.430;2023-02-28T14:54:33;57444.81;;;-140.43;79.77
30714;BME280;17465;47.934;33.430;2023-02-28T14:57:05;57453.28;;;-140.43;81.61
30714;BME280;17465;47.934;33.430;2023-02-28T14:59:36;57428.92;;;-140.43;80.87
30714;BME280;17465;47.934;33.430;2023-02-28T15:02:25;57428.92;;;-140.43;80.87
30714;BME280;17465;47.934;33.430;2023-02-28T15:05:15;57432.10;;;-140.43;82.65
30714;BME280;17465;47.934;33.430;2023-02-28T15:07:33;57422.57;;;-140.43;82.71
30714;BME280;17465;47.934;33.430;2023-02-28T15:16:03;57434.22;;;-140.43;81.59
30714;BME280;17465;47.934;33.430;2023-02-28T15:18:49;57434.22;;;-140.43;81.59
30714;BME280;17465;47.934;33.430;2023-02-28T15:21:29;57433.16;;;-140.43;81.55
30714;BME280;17465;47.934;33.430;2023-02-28T15:24:30;57440.57;;;-140.43;82.34
30714;BME280;17465;47.934;33.430;2023-02-28T15:27:04;57445.87;;;-140.43;83.01
30714;BME280;17465;47.934;33.430;2023-02-28T15:29:34;57465.99;;;-140.43;84.35
30714;BME280;17465;47.934;33.430;2023-02-28T15:32:06;57465.99;;;-140.43;84.35
30714;BME280;17465;47.934;33.430;2023-02-28T15:34:42;57433.16;;;-140.43;80.08
30714;BME280;17465;47.934;33.430;2023-02-28T15:40:11;57447.99;;;-140.43;82.31
30714;BME280;17465;47.934;33.430;2023-02-28T15:42:40;57441.63;;;-140.43;80.98
30714;BME280;17465;47.934;33.430;2023-02-28T15:45:37;57450.11;;;-140.43;81.60
30714;BME280;17465;47.934;33.430;2023-02-28T15:48:31;57422.57;;;-140.43;81.84
30714;BME280;17465;47.934;33.430;2023-02-28T15:54:00;57435.28;;;-140.43;81.72
30714;BME280;17465;47.934;33.430;2023-02-28T15:56:33;57422.57;;;-140.43;81.70